createdAt,value
2022-09-15T00:00:35.515Z,86.48
2022-09-15T00:03:40.163Z,87.31
2022-09-15T00:06:42.796Z,87.18
2022-09-15T00:09:46.670Z,87.63
2022-09-15T00:12:49.274Z,87.46
2022-09-15T00:15:52.255Z,87.21
2022-09-15T00:18:55.749Z,87.13
2022-09-15T00:21:58.642Z,87.29
2022-09-15T00:25:01.291Z,87.15
2022-09-15T00:28:04.199Z,87.60
2022-09-15T00:31:09.525Z,87.47
2022-09-15T00:34:13.960Z,87.75
2022-09-15T00:37:17.066Z,86.97
2022-09-15T00:40:22.362Z,87.07
2022-09-15T00:44:18.987Z,87.04
2022-09-15T00:47:28.872Z,86.55
2022-09-15T00:50:32.869Z,86.18
2022-09-15T00:53:37.904Z,86.03
2022-09-15T00:56:43.116Z,85.41
2022-09-15T00:59:48.010Z,84.91
2022-09-15T01:02:51.285Z,85.78
2022-09-15T01:05:58.040Z,85.49
2022-09-15T01:09:11.838Z,85.74
2022-09-15T01:12:14.931Z,85.91
2022-09-15T01:15:19.644Z,86.04
2022-09-15T01:18:54.480Z,85.77
2022-09-15T01:22:15.329Z,85.54
2022-09-15T01:25:37.139Z,86.03
2022-09-15T01:28:49.003Z,86.46
2022-09-15T01:32:13.598Z,87.79
2022-09-15T01:35:33.656Z,86.55
2022-09-15T01:38:44.397Z,86.92
2022-09-15T01:41:49.065Z,86.67
2022-09-15T01:44:58.896Z,86.20
2022-09-15T01:48:05.664Z,86.29
2022-09-15T01:51:09.883Z,86.27
2022-09-15T01:54:14.988Z,86.47
2022-09-15T01:57:22.273Z,85.89
2022-09-15T02:00:24.951Z,85.85
2022-09-15T02:03:55.684Z,84.51
2022-09-15T02:07:17.252Z,85.01
2022-09-15T02:10:29.509Z,85.05
2022-09-15T02:13:58.322Z,85.56
2022-09-15T02:17:03.159Z,85.92
2022-09-15T02:20:15.792Z,85.58
2022-09-15T02:23:27.351Z,85.41
2022-09-15T02:26:33.729Z,84.96
2022-09-15T02:29:39.013Z,86.06
2022-09-15T02:32:49.608Z,86.85
2022-09-15T02:35:53.434Z,86.91
2022-09-15T02:39:09.061Z,86.25
2022-09-15T02:42:12.068Z,86.60
2022-09-15T02:45:14.782Z,86.81
2022-09-15T02:48:17.827Z,87.29
2022-09-15T02:51:20.453Z,86.83
2022-09-15T02:54:23.570Z,86.49
2022-09-15T02:57:27.115Z,86.05
2022-09-15T03:00:31.400Z,86.87
2022-09-15T03:03:35.036Z,86.86
2022-09-15T03:06:38.018Z,87.27
2022-09-15T03:09:40.821Z,87.11
2022-09-15T03:12:52.680Z,86.92
2022-09-15T03:15:55.286Z,86.52
2022-09-15T03:18:59.820Z,85.70
2022-09-15T03:22:02.409Z,85.55
2022-09-15T03:25:06.793Z,85.31
2022-09-15T03:28:09.394Z,85.23
2022-09-15T03:31:14.852Z,84.84
2022-09-15T03:34:17.627Z,84.61
2022-09-15T03:37:20.590Z,84.55
2022-09-15T03:40:23.277Z,85.06
2022-09-15T03:43:29.806Z,85.41
2022-09-15T03:46:32.334Z,85.71
2022-09-15T03:49:35.313Z,84.84
2022-09-15T03:52:37.930Z,85.56
2022-09-15T03:55:40.986Z,85.27
2022-09-15T03:58:43.869Z,85.17
2022-09-15T04:01:51.058Z,85.30
2022-09-15T04:04:54.080Z,85.54
2022-09-15T04:07:56.635Z,85.84
2022-09-15T04:11:00.571Z,86.46
2022-09-15T04:14:03.678Z,85.87
2022-09-15T04:17:06.760Z,85.65
2022-09-15T04:20:10.069Z,85.38
2022-09-15T04:23:13.041Z,85.42
2022-09-15T04:26:27.687Z,85.47
2022-09-15T04:29:30.572Z,85.61
2022-09-15T04:32:33.297Z,85.75
2022-09-15T04:35:36.167Z,85.14
2022-09-15T04:38:39.291Z,85.05
2022-09-15T04:41:42.409Z,84.99
2022-09-15T04:44:44.943Z,85.09
2022-09-15T04:47:48.724Z,85.13
2022-09-15T04:50:51.890Z,85.69
2022-09-15T04:53:55.767Z,86.16
2022-09-15T04:56:58.407Z,86.09
2022-09-15T05:00:04.053Z,86.08
2022-09-15T05:03:06.700Z,85.65
2022-09-15T05:06:12.330Z,86.36
2022-09-15T05:09:15.221Z,86.66
2022-09-15T05:12:18.112Z,86.31
2022-09-15T05:15:20.897Z,86.66
2022-09-15T05:18:23.913Z,86.82
2022-09-15T05:21:27.579Z,86.87
2022-09-15T05:24:30.578Z,86.41
2022-09-15T05:27:34.054Z,85.85
2022-09-15T05:30:44.118Z,86.17
2022-09-15T05:33:48.766Z,85.81
2022-09-15T05:36:51.626Z,85.61
2022-09-15T05:39:54.395Z,86.35
2022-09-15T05:42:57.954Z,86.49
2022-09-15T05:46:00.887Z,86.21
2022-09-15T05:49:03.862Z,85.61
2022-09-15T05:52:06.479Z,86.24
2022-09-15T05:55:10.290Z,85.73
2022-09-15T05:58:13.391Z,85.24
2022-09-15T06:01:17.787Z,84.95
2022-09-15T06:04:20.733Z,85.00
2022-09-15T06:07:23.326Z,84.91
2022-09-15T06:10:26.293Z,84.87
2022-09-15T06:13:28.967Z,84.75
2022-09-15T06:16:34.688Z,85.01
2022-09-15T06:19:37.546Z,84.72
2022-09-15T06:22:40.917Z,84.99
2022-09-15T06:25:43.549Z,85.04
2022-09-15T06:28:57.952Z,85.13
2022-09-15T06:32:03.022Z,85.18
2022-09-15T06:35:07.267Z,85.01
2022-09-15T06:38:09.876Z,84.74
2022-09-15T06:41:15.001Z,84.31
2022-09-15T06:44:18.716Z,83.42
2022-09-15T06:47:21.617Z,83.05
2022-09-15T06:50:24.474Z,82.44
2022-09-15T06:53:32.218Z,82.36
2022-09-15T06:56:38.106Z,81.99
2022-09-15T06:59:41.584Z,81.59
2022-09-15T07:02:44.366Z,81.17
2022-09-15T07:05:47.649Z,80.84
2022-09-15T07:08:51.014Z,79.91
2022-09-15T07:11:54.677Z,80.03
2022-09-15T07:14:58.219Z,80.15
2022-09-15T07:18:01.317Z,79.73
2022-09-15T07:21:08.113Z,79.31
2022-09-15T07:24:11.315Z,78.58
2022-09-15T07:27:14.396Z,77.85
2022-09-15T07:30:17.533Z,77.26
2022-09-15T07:33:20.069Z,76.62
2022-09-15T07:36:23.173Z,76.29
2022-09-15T07:39:26.091Z,76.42
2022-09-15T07:42:32.184Z,75.63
2022-09-15T07:45:38.701Z,74.30
2022-09-15T07:48:45.242Z,71.87
2022-09-15T07:51:49.336Z,72.17
2022-09-15T07:54:52.405Z,72.04
2022-09-15T07:58:02.095Z,71.37
2022-09-15T08:01:07.985Z,69.13
2022-09-15T08:04:11.082Z,66.85
2022-09-15T08:07:13.894Z,64.69
2022-09-15T08:10:17.956Z,65.47
2022-09-15T08:13:20.944Z,63.92
2022-09-15T08:16:24.938Z,64.67
2022-09-15T08:19:28.988Z,61.94
2022-09-15T08:22:31.967Z,58.87
2022-09-15T08:25:34.861Z,56.79
2022-09-15T08:28:38.464Z,54.64
2022-09-15T08:31:41.808Z,52.97
2022-09-15T08:34:44.902Z,54.41
2022-09-15T08:37:47.712Z,52.04
2022-09-15T08:40:56.582Z,52.56
2022-09-15T08:44:24.055Z,51.53
2022-09-15T08:47:36.369Z,49.85
2022-09-15T08:50:44.648Z,47.75
2022-09-15T08:53:54.918Z,46.14
2022-09-15T08:56:58.742Z,47.43
2022-09-15T09:00:02.099Z,46.54
2022-09-15T09:03:40.245Z,45.02
2022-09-15T09:06:52.494Z,43.20
2022-09-15T09:10:10.155Z,43.63
2022-09-15T09:13:35.698Z,42.16
2022-09-15T09:17:16.581Z,41.84
2022-09-15T09:20:37.860Z,40.74
2022-09-15T09:24:06.908Z,39.73
2022-09-15T09:27:20.974Z,38.78
2022-09-15T09:30:25.697Z,42.55
2022-09-15T09:33:38.628Z,43.81
2022-09-15T09:36:42.886Z,45.25
2022-09-15T09:39:48.411Z,45.55
2022-09-15T09:42:51.224Z,46.33
2022-09-15T09:45:55.654Z,47.61
2022-09-15T09:49:13.564Z,47.80
2022-09-15T09:52:36.294Z,48.41
2022-09-15T09:55:41.463Z,48.37
2022-09-15T09:58:45.473Z,48.63
2022-09-15T10:02:06.134Z,48.32
2022-09-15T10:05:09.069Z,48.52
2022-09-15T10:08:20.468Z,48.48
2022-09-15T10:11:44.130Z,47.06
2022-09-15T10:14:52.644Z,47.09
2022-09-15T10:17:58.522Z,44.74
2022-09-15T10:21:10.022Z,42.95
2022-09-15T10:24:27.946Z,43.21
2022-09-15T10:27:34.646Z,42.22
2022-09-15T10:30:38.283Z,42.53
2022-09-15T10:33:45.034Z,42.94
2022-09-15T10:36:47.980Z,41.10
2022-09-15T10:39:55.710Z,41.73
2022-09-15T10:43:24.812Z,41.31
2022-09-15T10:46:46.353Z,41.51
2022-09-15T10:50:00.933Z,42.46
2022-09-15T10:53:29.762Z,42.58
2022-09-15T10:56:43.792Z,44.81
2022-09-15T11:00:07.183Z,45.56
2022-09-15T11:03:19.339Z,46.79
2022-09-15T11:06:26.544Z,47.55
2022-09-15T11:09:55.997Z,48.19
2022-09-15T11:13:12.789Z,48.95
2022-09-15T11:16:34.249Z,49.90
2022-09-15T11:20:05.676Z,49.34
2022-09-15T11:23:11.792Z,50.46
2022-09-15T11:26:29.154Z,52.03
2022-09-15T11:29:51.706Z,52.32
2022-09-15T11:33:26.076Z,51.01
2022-09-15T11:36:45.043Z,52.36
2022-09-15T11:40:10.874Z,52.06
2022-09-15T11:43:24.625Z,52.57
2022-09-15T11:46:47.336Z,54.12
2022-09-15T11:50:03.493Z,53.08
2022-09-15T11:53:26.259Z,53.96
2022-09-15T11:56:47.652Z,52.79
2022-09-15T12:00:03.103Z,53.38
2022-09-15T12:03:27.622Z,54.90
2022-09-15T12:06:36.243Z,55.03
2022-09-15T12:09:38.998Z,55.42
2022-09-15T12:12:44.676Z,55.64
2022-09-15T12:15:49.287Z,56.42
2022-09-15T12:18:55.864Z,56.92
2022-09-15T12:22:25.942Z,59.60
2022-09-15T12:26:02.219Z,65.13
2022-09-15T12:29:27.526Z,66.10
2022-09-15T12:32:35.299Z,68.84
2022-09-15T12:35:38.416Z,68.56
2022-09-15T12:38:48.408Z,68.92
2022-09-15T12:41:54.631Z,68.33
2022-09-15T12:45:03.411Z,67.56
2022-09-15T12:48:14.027Z,67.83
2022-09-15T12:51:26.682Z,66.83
2022-09-15T12:54:33.264Z,66.17
2022-09-15T12:57:38.158Z,65.63
2022-09-15T13:01:00.679Z,65.69
2022-09-15T13:04:07.486Z,65.46
2022-09-15T13:07:35.250Z,65.49
2022-09-15T13:10:42.568Z,67.73
2022-09-15T13:13:54.698Z,68.32
2022-09-15T13:17:06.795Z,71.18
2022-09-15T13:20:18.190Z,75.55
2022-09-15T13:23:25.335Z,76.93
2022-09-15T13:26:32.177Z,79.22
2022-09-15T13:29:48.522Z,82.98
2022-09-15T13:33:09.833Z,82.22
2022-09-15T13:36:15.873Z,83.49
2022-09-15T13:40:01.736Z,86.23
2022-09-15T13:43:45.969Z,85.38
2022-09-15T13:46:54.808Z,87.33
2022-09-15T13:50:13.336Z,87.84
2022-09-15T13:53:16.276Z,89.45
2022-09-15T13:56:24.691Z,89.75
2022-09-15T13:59:33.189Z,89.44
2022-09-15T14:02:36.238Z,89.70
2022-09-15T14:05:40.165Z,87.94
2022-09-15T14:08:46.216Z,89.37
2022-09-15T14:11:53.036Z,90.80
2022-09-15T14:14:58.825Z,90.75
2022-09-15T14:18:03.594Z,89.72
2022-09-15T14:21:19.448Z,89.20
2022-09-15T14:24:32.305Z,91.06
2022-09-15T14:27:52.267Z,91.70
2022-09-15T14:31:00.196Z,91.72
2022-09-15T14:34:07.748Z,90.61
2022-09-15T14:37:30.116Z,91.69
2022-09-15T14:40:46.292Z,92.31
2022-09-15T14:43:54.170Z,92.93
2022-09-15T14:47:01.909Z,93.33
2022-09-15T14:50:29.095Z,93.17
2022-09-15T14:53:47.254Z,92.72
2022-09-15T14:57:04.082Z,93.03
2022-09-15T15:00:19.322Z,92.78
2022-09-15T15:03:46.399Z,91.56
2022-09-15T15:07:17.848Z,92.73
2022-09-15T15:10:35.644Z,92.40
2022-09-15T15:13:48.360Z,92.61
2022-09-15T15:16:59.756Z,92.66
2022-09-15T15:20:11.355Z,92.83
2022-09-15T15:23:29.279Z,92.53
2022-09-15T15:26:43.803Z,92.72
2022-09-15T15:29:54.326Z,92.62
2022-09-15T15:33:04.092Z,93.92
2022-09-15T15:36:17.498Z,92.38
2022-09-15T15:39:29.200Z,91.61
2022-09-15T15:42:36.632Z,91.03
2022-09-15T15:45:53.685Z,91.12
2022-09-15T15:49:04.159Z,91.00
2022-09-15T15:52:14.112Z,91.06
2022-09-15T15:55:33.183Z,91.28
2022-09-15T15:58:41.559Z,91.34
2022-09-15T16:01:57.331Z,91.36
2022-09-15T16:05:05.374Z,91.74
2022-09-15T16:08:32.710Z,92.35
2022-09-15T16:11:45.356Z,92.08
2022-09-15T16:14:55.501Z,91.54
2022-09-15T16:18:05.745Z,91.91
2022-09-15T16:21:41.069Z,92.44
2022-09-15T16:24:51.517Z,93.17
2022-09-15T16:28:00.455Z,92.65
2022-09-15T16:31:08.702Z,92.26
2022-09-15T16:34:17.832Z,92.56
2022-09-15T16:37:24.654Z,92.48
2022-09-15T16:40:29.297Z,92.96
2022-09-15T16:43:36.423Z,92.35
2022-09-15T16:46:44.349Z,92.63
2022-09-15T16:49:52.550Z,93.05
2022-09-15T16:53:02.144Z,92.99
2022-09-15T16:56:14.810Z,93.26
2022-09-15T16:59:21.689Z,93.20
2022-09-15T17:02:28.678Z,93.23
2022-09-15T17:05:48.693Z,92.86
2022-09-15T17:08:55.225Z,93.40
2022-09-15T17:12:02.292Z,94.34
2022-09-15T17:15:39.063Z,94.23
2022-09-15T17:18:47.347Z,93.41
2022-09-15T17:21:56.052Z,93.81
2022-09-15T17:25:04.103Z,93.35
2022-09-15T17:28:10.995Z,93.05
2022-09-15T17:31:17.150Z,93.67
2022-09-15T17:34:24.219Z,92.90
2022-09-15T17:37:27.761Z,93.37
2022-09-15T17:40:34.192Z,93.27
2022-09-15T17:43:38.772Z,92.77
2022-09-15T17:46:41.946Z,92.61
2022-09-15T17:49:48.930Z,92.57
2022-09-15T17:52:52.072Z,92.12
2022-09-15T17:55:59.818Z,91.94
2022-09-15T17:59:05.938Z,92.08
2022-09-15T18:02:23.155Z,91.76
2022-09-15T18:05:34.510Z,91.24
2022-09-15T18:08:44.558Z,91.10
2022-09-15T18:15:06.832Z,90.86
2022-09-15T18:18:20.987Z,90.89
2022-09-15T18:21:34.235Z,90.27
2022-09-15T18:24:40.909Z,89.96
2022-09-15T18:27:51.261Z,89.25
2022-09-15T18:30:54.634Z,88.84
2022-09-15T18:33:58.213Z,89.15
2022-09-15T18:37:02.684Z,89.10
2022-09-15T18:40:12.307Z,89.82
2022-09-15T18:43:21.330Z,91.45
2022-09-15T18:46:29.394Z,91.03
2022-09-15T18:49:39.458Z,91.04
2022-09-15T18:52:50.439Z,90.31
2022-09-15T18:55:58.498Z,91.75
2022-09-15T18:59:08.328Z,91.67
2022-09-15T19:02:20.026Z,92.61
2022-09-15T19:05:29.046Z,91.74
2022-09-15T19:08:39.921Z,91.80
2022-09-15T19:11:46.149Z,92.08
2022-09-15T19:14:53.801Z,91.58
2022-09-15T19:17:59.653Z,90.24
2022-09-15T19:21:12.611Z,90.86
2022-09-15T19:24:19.494Z,90.09
2022-09-15T19:27:27.000Z,90.10
2022-09-15T19:30:35.429Z,89.75
2022-09-15T19:33:40.511Z,89.31
2022-09-15T19:36:47.242Z,89.11
2022-09-15T19:39:52.232Z,89.16
2022-09-15T19:42:57.694Z,89.85
2022-09-15T19:46:03.582Z,90.43
2022-09-15T19:49:13.020Z,90.57
2022-09-15T19:52:19.211Z,90.56
2022-09-15T19:55:23.314Z,90.83
2022-09-15T19:58:30.274Z,90.44
2022-09-15T20:01:34.843Z,90.80
2022-09-15T20:08:05.760Z,89.84
2022-09-15T20:11:12.899Z,89.58
2022-09-15T20:14:16.562Z,89.16
2022-09-15T20:17:21.164Z,89.53
2022-09-15T20:20:28.247Z,89.25
2022-09-15T20:23:36.839Z,89.09
2022-09-15T20:26:45.952Z,89.68
2022-09-15T20:29:56.131Z,89.54
2022-09-15T20:33:01.991Z,90.36
2022-09-15T20:36:21.008Z,89.95
2022-09-15T20:39:28.237Z,90.45
2022-09-15T20:42:37.563Z,89.83
2022-09-15T20:45:44.813Z,89.14
2022-09-15T20:48:58.263Z,90.24
2022-09-15T20:52:05.560Z,89.51
2022-09-15T20:55:18.228Z,89.43
2022-09-15T20:58:25.258Z,89.57
2022-09-15T21:01:39.311Z,89.79
2022-09-15T21:04:54.113Z,90.11
2022-09-15T21:08:09.872Z,89.99
2022-09-15T21:11:26.542Z,89.48
2022-09-15T21:14:41.563Z,88.81
2022-09-15T21:17:51.380Z,88.75
2022-09-15T21:21:14.101Z,89.34
2022-09-15T21:24:26.994Z,89.65
2022-09-15T21:27:41.067Z,89.31
2022-09-15T21:30:53.063Z,89.24
2022-09-15T21:34:05.576Z,88.71
2022-09-15T21:37:17.704Z,88.45
2022-09-15T21:40:28.330Z,88.72
2022-09-15T21:43:42.105Z,87.88
2022-09-15T21:46:57.131Z,87.04
2022-09-15T21:50:09.827Z,87.40
2022-09-15T21:53:22.349Z,87.37
2022-09-15T21:56:33.842Z,87.04
2022-09-15T21:59:43.984Z,88.00
2022-09-15T22:02:58.549Z,88.05
2022-09-15T22:06:12.932Z,88.08
2022-09-15T22:09:26.569Z,87.79
2022-09-15T22:12:38.752Z,87.58
2022-09-15T22:15:48.865Z,87.46
2022-09-15T22:18:59.852Z,87.83
2022-09-15T22:22:12.495Z,88.44
2022-09-15T22:25:23.474Z,88.01
2022-09-15T22:28:36.431Z,88.43
2022-09-15T22:31:50.744Z,88.88
2022-09-15T22:35:00.629Z,88.77
2022-09-15T22:38:10.335Z,88.59
2022-09-15T22:41:23.235Z,88.13
2022-09-15T22:44:35.091Z,88.86
2022-09-15T22:47:44.459Z,89.65
2022-09-15T22:50:54.220Z,88.98
2022-09-15T22:54:06.975Z,89.78
2022-09-15T22:57:19.414Z,89.81
2022-09-15T23:00:27.850Z,89.67
2022-09-15T23:03:40.021Z,89.55
2022-09-15T23:06:51.823Z,88.85
2022-09-15T23:10:06.768Z,88.50
2022-09-15T23:13:19.354Z,88.72
2022-09-15T23:16:36.545Z,88.66
2022-09-15T23:19:46.783Z,88.14
2022-09-15T23:22:59.597Z,89.16
2022-09-15T23:26:13.585Z,88.46
2022-09-15T23:29:27.532Z,88.50
2022-09-15T23:32:40.702Z,88.42
2022-09-15T23:35:53.986Z,88.30
2022-09-15T23:39:05.437Z,88.49
2022-09-15T23:42:20.201Z,88.62
2022-09-15T23:45:27.972Z,88.55
2022-09-15T23:48:36.658Z,88.56
2022-09-15T23:51:48.735Z,88.37
2022-09-15T23:55:05.234Z,88.83
2022-09-15T23:58:17.629Z,88.72
